createdAt,value
2023-05-01T00:01:13.994Z,12.30
2023-05-01T00:03:44.492Z,15.70
2023-05-01T00:06:14.760Z,15.80
2023-05-01T00:08:45.615Z,14.00
2023-05-01T00:11:16.249Z,14.40
2023-05-01T00:13:49.096Z,16.00
2023-05-01T00:16:22.239Z,14.40
2023-05-01T00:21:25.276Z,16.20
2023-05-01T00:26:27.774Z,14.70
2023-05-01T00:28:59.387Z,13.60
2023-05-01T00:31:30.719Z,13.40
2023-05-01T00:34:02.358Z,12.60
2023-05-01T00:36:32.832Z,14.40
2023-05-01T00:39:05.246Z,13.40
2023-05-01T00:41:37.649Z,13.80
2023-05-01T00:44:09.163Z,12.20
2023-05-01T00:46:40.065Z,12.80
2023-05-01T00:49:11.596Z,12.20
2023-05-01T00:51:42.824Z,15.10
2023-05-01T00:54:13.798Z,13.80
2023-05-01T00:56:49.020Z,11.90
2023-05-01T00:59:22.368Z,14.10
2023-05-01T01:01:56.346Z,11.70
2023-05-01T01:04:32.821Z,13.60
2023-05-01T01:07:13.067Z,11.70
2023-05-01T01:10:04.902Z,14.10
2023-05-01T01:12:42.788Z,12.70
2023-05-01T01:15:25.513Z,15.40
2023-05-01T01:18:26.306Z,10.60
2023-05-01T01:21:06.458Z,13.40
2023-05-01T01:24:15.686Z,9.80
2023-05-01T01:27:00.165Z,14.90
2023-05-01T01:29:58.022Z,11.90
2023-05-01T01:33:04.813Z,16.00
2023-05-01T01:35:38.654Z,14.80
2023-05-01T01:38:19.224Z,15.40
2023-05-01T01:41:05.347Z,13.20
2023-05-01T01:43:42.919Z,13.80
2023-05-01T01:46:18.597Z,12.20
2023-05-01T01:48:51.377Z,14.40
2023-05-01T01:51:24.103Z,13.30
2023-05-01T01:53:59.127Z,13.00
2023-05-01T01:56:32.030Z,13.20
2023-05-01T01:59:05.096Z,13.80
2023-05-01T02:01:38.567Z,13.20
2023-05-01T02:04:11.144Z,14.50
2023-05-01T02:06:44.873Z,14.90
2023-05-01T02:09:18.004Z,12.40
2023-05-01T02:11:52.182Z,12.10
2023-05-01T02:14:28.317Z,11.60
2023-05-01T02:17:01.468Z,13.40
2023-05-01T02:19:34.243Z,14.60
2023-05-01T02:22:07.917Z,15.20
2023-05-01T02:24:45.804Z,15.20
2023-05-01T02:27:31.645Z,13.70
2023-05-01T02:30:02.744Z,14.10
2023-05-01T02:32:37.261Z,14.50
2023-05-01T02:35:08.481Z,13.80
2023-05-01T02:37:40.250Z,12.80
2023-05-01T02:40:14.738Z,10.70
2023-05-01T02:42:49.336Z,11.40
2023-05-01T02:45:22.063Z,12.30
2023-05-01T02:47:57.300Z,12.70
2023-05-01T02:50:29.042Z,14.60
2023-05-01T02:53:00.115Z,15.50
2023-05-01T02:56:05.765Z,11.80
2023-05-01T02:58:39.980Z,11.90
2023-05-01T03:01:13.227Z,11.00
2023-05-01T03:03:43.983Z,11.80
2023-05-01T03:06:15.947Z,14.80
2023-05-01T03:08:48.513Z,12.90
2023-05-01T03:11:20.095Z,13.80
2023-05-01T03:13:49.995Z,13.80
2023-05-01T03:16:20.538Z,14.20
2023-05-01T03:18:51.024Z,15.00
2023-05-01T03:21:23.616Z,12.20
2023-05-01T03:23:54.951Z,11.90
2023-05-01T03:26:28.961Z,16.60
2023-05-01T03:29:02.832Z,14.70
2023-05-01T03:31:34.908Z,14.80
2023-05-01T03:34:08.367Z,14.00
2023-05-01T03:36:39.007Z,21.50
2023-05-01T03:39:09.834Z,18.00
2023-05-01T03:42:06.501Z,16.50
2023-05-01T03:44:42.986Z,14.80
2023-05-01T03:47:13.198Z,14.00
2023-05-01T03:49:45.146Z,16.10
2023-05-01T03:52:17.652Z,13.80
2023-05-01T03:54:48.088Z,16.40
2023-05-01T03:57:25.628Z,13.60
2023-05-01T03:59:56.394Z,14.20
2023-05-01T04:02:26.295Z,15.10
2023-05-01T04:04:57.130Z,16.90
2023-05-01T04:07:26.921Z,15.30
2023-05-01T04:09:57.111Z,11.00
2023-05-01T04:12:26.820Z,14.00
2023-05-01T04:14:56.133Z,11.20
2023-05-01T04:17:26.176Z,11.50
2023-05-01T04:19:56.689Z,10.10
2023-05-01T04:22:26.455Z,12.40
2023-05-01T04:24:55.663Z,14.10
2023-05-01T04:29:55.610Z,13.30
2023-05-01T04:32:25.086Z,12.50
2023-05-01T04:34:54.613Z,11.50
2023-05-01T04:37:25.220Z,10.50
2023-05-01T04:44:53.844Z,9.90
2023-05-01T04:47:24.380Z,11.70
2023-05-01T04:49:53.259Z,9.10
2023-05-01T04:52:22.914Z,10.80
2023-05-01T04:54:58.929Z,9.60
2023-05-01T04:57:29.874Z,9.80
2023-05-01T04:59:59.671Z,8.00
2023-05-01T05:02:28.745Z,10.50
2023-05-01T05:04:58.590Z,9.50
2023-05-01T05:07:27.882Z,9.40
2023-05-01T05:10:16.432Z,7.80
2023-05-01T05:12:50.558Z,8.90
2023-05-01T05:15:19.842Z,7.80
2023-05-01T05:17:49.065Z,8.90
2023-05-01T05:20:18.131Z,8.10
2023-05-01T05:22:46.717Z,8.50
2023-05-01T05:25:27.195Z,9.80
2023-05-01T05:27:55.976Z,9.40
2023-05-01T05:30:25.168Z,8.60
2023-05-01T05:32:55.266Z,9.10
2023-05-01T05:35:24.348Z,8.60
2023-05-01T05:37:53.292Z,8.80
2023-05-01T05:40:21.773Z,7.70
2023-05-01T05:42:59.567Z,6.30
2023-05-01T05:45:29.523Z,6.30
2023-05-01T05:47:58.176Z,6.60
2023-05-01T05:50:28.060Z,7.00
2023-05-01T05:52:56.762Z,7.00
2023-05-01T05:55:25.519Z,6.50
2023-05-01T05:58:05.189Z,6.00
2023-05-01T06:00:33.990Z,6.10
2023-05-01T06:03:06.047Z,6.30
2023-05-01T06:05:35.098Z,8.10
2023-05-01T06:08:04.272Z,6.30
2023-05-01T06:10:33.332Z,5.40
2023-05-01T06:13:09.519Z,5.70
2023-05-01T06:15:46.324Z,6.30
2023-05-01T06:18:15.319Z,6.30
2023-05-01T06:20:44.134Z,5.80
2023-05-01T06:23:14.052Z,5.80
2023-05-01T06:26:05.641Z,7.30
2023-05-01T06:28:34.414Z,5.90
2023-05-01T06:31:03.501Z,6.00
2023-05-01T06:33:34.617Z,6.10
2023-05-01T06:36:10.452Z,6.10
2023-05-01T06:38:40.971Z,6.80
2023-05-01T06:41:10.284Z,6.70
2023-05-01T06:43:38.980Z,6.60
2023-05-01T06:46:07.868Z,5.80
2023-05-01T06:48:37.254Z,5.60
2023-05-01T06:51:08.202Z,7.30
2023-05-01T06:53:38.108Z,6.20
2023-05-01T06:56:07.128Z,6.80
2023-05-01T06:58:35.953Z,5.10
2023-05-01T07:01:05.043Z,5.10
2023-05-01T07:03:34.103Z,4.60
2023-05-01T07:06:02.837Z,5.60
2023-05-01T07:08:31.973Z,7.20
2023-05-01T07:11:00.854Z,5.60
2023-05-01T07:13:29.660Z,5.10
2023-05-01T07:15:58.671Z,6.60
2023-05-01T07:18:27.840Z,5.30
2023-05-01T07:20:56.742Z,4.80
2023-05-01T07:23:26.233Z,5.40
2023-05-01T07:25:56.050Z,4.70
2023-05-01T07:28:25.033Z,5.50
2023-05-01T07:30:53.921Z,5.30
2023-05-01T07:33:25.275Z,6.00
2023-05-01T07:35:55.297Z,5.60
2023-05-01T07:38:23.972Z,5.20
2023-05-01T07:40:57.836Z,6.20
2023-05-01T07:43:26.488Z,5.00
2023-05-01T07:46:00.825Z,5.10
2023-05-01T07:48:29.930Z,5.20
2023-05-01T07:51:02.614Z,4.80
2023-05-01T07:53:32.079Z,4.60
2023-05-01T07:56:09.303Z,5.60
2023-05-01T07:58:38.326Z,6.20
2023-05-01T08:01:06.928Z,4.40
2023-05-01T08:03:37.005Z,4.20
2023-05-01T08:06:06.760Z,5.20
2023-05-01T08:08:35.688Z,5.30
2023-05-01T08:11:04.511Z,5.10
2023-05-01T08:13:33.454Z,6.20
2023-05-01T08:16:03.699Z,5.20
2023-05-01T08:18:32.395Z,5.30
2023-05-01T08:21:01.230Z,5.10
2023-05-01T08:23:30.186Z,5.70
2023-05-01T08:25:59.456Z,5.00
2023-05-01T08:28:28.353Z,5.30
2023-05-01T08:30:57.239Z,5.00
2023-05-01T08:33:26.088Z,5.80
2023-05-01T08:35:54.939Z,4.90
2023-05-01T08:38:23.571Z,5.60
2023-05-01T08:40:54.702Z,5.10
2023-05-01T08:43:24.528Z,5.60
2023-05-01T08:45:55.625Z,4.40
2023-05-01T08:48:25.932Z,5.10
2023-05-01T08:51:00.013Z,4.80
2023-05-01T08:53:29.864Z,4.00
2023-05-01T08:56:00.851Z,4.30
2023-05-01T08:58:30.647Z,4.50
2023-05-01T09:01:01.559Z,6.20
2023-05-01T09:03:33.720Z,4.60
2023-05-01T09:06:04.637Z,5.30
2023-05-01T09:08:33.934Z,5.70
2023-05-01T09:11:04.047Z,4.10
2023-05-01T09:13:33.646Z,4.60
2023-05-01T09:16:03.631Z,4.40
2023-05-01T09:18:32.497Z,4.10
2023-05-01T09:21:02.553Z,4.20
2023-05-01T09:23:31.907Z,4.40
2023-05-01T09:31:24.933Z,3.80
2023-05-01T09:34:01.996Z,4.40
2023-05-01T09:36:32.854Z,4.60
2023-05-01T09:39:02.819Z,4.70
2023-05-01T09:41:34.517Z,4.80
2023-05-01T09:44:03.661Z,4.00
2023-05-01T09:46:44.206Z,4.30
2023-05-01T09:49:13.282Z,3.80
2023-05-01T09:54:20.386Z,4.30
2023-05-01T09:56:50.090Z,4.80
2023-05-01T09:59:21.608Z,4.40
2023-05-01T10:01:50.966Z,4.60
2023-05-01T10:04:34.090Z,4.00
2023-05-01T10:07:13.745Z,4.60
2023-05-01T10:09:43.452Z,5.10
2023-05-01T10:12:24.756Z,3.80
2023-05-01T10:14:58.177Z,4.80
2023-05-01T10:17:27.129Z,5.20
2023-05-01T10:22:27.099Z,4.70
2023-05-01T10:24:56.994Z,5.00
2023-05-01T10:27:27.253Z,5.40
2023-05-01T10:29:56.721Z,4.40
2023-05-01T10:32:26.200Z,4.10
2023-05-01T10:35:00.971Z,4.70
2023-05-01T10:37:48.089Z,3.60
2023-05-01T10:40:48.989Z,3.00
2023-05-01T10:43:32.495Z,3.90
2023-05-01T10:46:08.113Z,3.40
2023-05-01T10:48:39.884Z,3.30
2023-05-01T10:51:10.145Z,5.40
2023-05-01T10:53:40.240Z,5.30
2023-05-01T10:56:30.595Z,4.70
2023-05-01T10:59:01.206Z,6.60
2023-05-01T11:01:48.977Z,6.20
2023-05-01T11:04:27.550Z,5.60
2023-05-01T11:07:02.354Z,6.10
2023-05-01T11:09:42.609Z,7.10
2023-05-01T11:12:15.807Z,6.40
2023-05-01T11:15:03.505Z,11.80
2023-05-01T11:17:41.903Z,9.50
2023-05-01T11:20:36.794Z,5.50
2023-05-01T11:23:05.896Z,12.30
2023-05-01T11:25:34.659Z,5.60
2023-05-01T11:28:04.441Z,7.40
2023-05-01T11:30:51.831Z,4.90
2023-05-01T11:33:26.575Z,5.30
2023-05-01T11:36:00.725Z,5.00
2023-05-01T11:38:29.539Z,3.90
2023-05-01T11:41:00.479Z,4.20
2023-05-01T11:43:29.884Z,3.70
2023-05-01T11:46:03.573Z,3.30
2023-05-01T11:48:32.963Z,4.70
2023-05-01T11:53:30.646Z,3.30
2023-05-01T11:56:00.273Z,3.80
2023-05-01T11:58:34.862Z,3.00
2023-05-01T12:01:04.249Z,3.90
2023-05-01T12:03:42.362Z,3.30
2023-05-01T12:06:15.576Z,3.90
2023-05-01T12:08:48.773Z,3.20
2023-05-01T12:11:18.110Z,3.10
2023-05-01T12:13:48.532Z,4.00
2023-05-01T12:16:17.509Z,3.70
2023-05-01T12:18:46.560Z,4.40
2023-05-01T12:21:17.928Z,3.30
2023-05-01T12:23:47.053Z,4.30
2023-05-01T12:29:02.588Z,4.20
2023-05-01T12:31:31.967Z,7.90
2023-05-01T12:34:08.290Z,3.50
2023-05-01T12:36:38.075Z,3.10
2023-05-01T12:39:14.326Z,4.90
2023-05-01T12:41:48.533Z,4.30
2023-05-01T12:44:28.119Z,3.50
2023-05-01T12:49:31.310Z,4.20
2023-05-01T12:52:01.753Z,4.30
2023-05-01T12:54:37.749Z,4.70
2023-05-01T12:57:18.251Z,3.60
2023-05-01T12:59:49.768Z,3.40
2023-05-01T13:02:18.648Z,3.60
2023-05-01T13:04:49.682Z,3.70
2023-05-01T13:07:19.613Z,5.30
2023-05-01T13:09:55.719Z,4.20
2023-05-01T13:12:26.498Z,3.90
2023-05-01T13:14:56.041Z,3.30
2023-05-01T13:17:28.806Z,3.80
2023-05-01T13:20:00.797Z,3.00
2023-05-01T13:22:34.772Z,4.60
2023-05-01T13:25:06.625Z,4.40
2023-05-01T13:27:35.438Z,3.50
2023-05-01T13:30:04.336Z,7.40
2023-05-01T13:32:33.075Z,4.40
2023-05-01T13:35:02.954Z,9.30
2023-05-01T13:37:32.731Z,4.80
2023-05-01T13:40:02.488Z,4.40
2023-05-01T13:42:31.898Z,11.40
2023-05-01T13:47:30.346Z,5.30
2023-05-01T13:49:59.647Z,4.30
2023-05-01T13:54:57.966Z,3.80
2023-05-01T13:57:26.989Z,3.40
2023-05-01T13:59:55.705Z,3.30
2023-05-01T14:02:27.406Z,4.10
2023-05-01T14:04:58.500Z,3.90
2023-05-01T14:07:30.359Z,3.50
2023-05-01T14:10:00.371Z,3.10
2023-05-01T14:12:31.454Z,3.60
2023-05-01T14:15:02.160Z,3.20
2023-05-01T14:17:33.555Z,6.80
2023-05-01T14:20:05.218Z,3.00
2023-05-01T14:22:46.404Z,5.50
2023-05-01T14:25:25.901Z,2.60
2023-05-01T14:27:55.992Z,5.10
2023-05-01T14:30:33.958Z,12.40
2023-05-01T14:33:04.056Z,8.70
2023-05-01T14:35:32.812Z,3.70
2023-05-01T14:38:10.809Z,3.10
2023-05-01T14:40:42.250Z,3.20
2023-05-01T14:43:16.267Z,2.80
2023-05-01T14:45:46.986Z,3.80
2023-05-01T14:48:41.708Z,18.40
2023-05-01T14:51:19.343Z,4.90
2023-05-01T14:53:48.088Z,3.50
2023-05-01T14:56:17.032Z,4.60
2023-05-01T14:58:47.227Z,7.30
2023-05-01T15:01:16.477Z,5.60
2023-05-01T15:03:45.815Z,5.70
2023-05-01T15:08:43.807Z,2.40
2023-05-01T15:11:14.828Z,4.90
2023-05-01T15:13:44.504Z,3.30
2023-05-01T15:16:13.465Z,3.60
2023-05-01T15:18:42.339Z,3.70
2023-05-01T15:21:11.059Z,3.10
2023-05-01T15:23:45.386Z,3.30
2023-05-01T15:26:14.517Z,4.20
2023-05-01T15:28:43.525Z,4.30
2023-05-01T15:31:12.071Z,3.30
2023-05-01T15:33:41.269Z,4.00
2023-05-01T15:36:09.983Z,5.70
2023-05-01T15:38:38.675Z,5.50
2023-05-01T15:41:07.563Z,4.80
2023-05-01T15:43:36.384Z,3.80
2023-05-01T15:46:06.466Z,5.20
2023-05-01T15:48:35.658Z,7.50
2023-05-01T15:51:05.236Z,6.40
2023-05-01T15:56:03.486Z,3.40
2023-05-01T15:58:32.341Z,4.10
2023-05-01T16:01:01.124Z,3.00
2023-05-01T16:03:30.827Z,3.20
2023-05-01T16:05:59.975Z,3.40
2023-05-01T16:08:28.844Z,3.70
2023-05-01T16:10:58.541Z,3.20
2023-05-01T16:13:27.177Z,4.90
2023-05-01T16:15:57.066Z,4.90
2023-05-01T16:18:25.946Z,3.30
2023-05-01T16:20:55.627Z,4.50
2023-05-01T16:23:25.656Z,3.20
2023-05-01T16:25:54.451Z,3.50
2023-05-01T16:28:26.516Z,3.20
2023-05-01T16:30:55.640Z,3.90
2023-05-01T16:33:24.511Z,2.90
2023-05-01T16:35:53.585Z,4.10
2023-05-01T16:38:22.596Z,3.20
2023-05-01T16:40:51.279Z,3.90
2023-05-01T16:43:22.652Z,3.70
2023-05-01T16:45:54.335Z,3.50
2023-05-01T16:48:24.766Z,4.60
2023-05-01T16:50:53.988Z,3.60
2023-05-01T16:53:23.809Z,3.50
2023-05-01T16:55:53.542Z,4.20
2023-05-01T16:58:22.221Z,3.20
2023-05-01T17:00:51.085Z,3.70
2023-05-01T17:03:19.773Z,3.90
2023-05-01T17:05:48.474Z,3.20
2023-05-01T17:08:17.258Z,4.00
2023-05-01T17:10:46.246Z,3.30
2023-05-01T17:13:16.164Z,3.30
2023-05-01T17:15:44.994Z,3.70
2023-05-01T17:18:13.625Z,3.80
2023-05-01T17:20:42.211Z,3.60
2023-05-01T17:23:10.893Z,5.30
2023-05-01T17:25:40.209Z,5.90
2023-05-01T17:28:08.783Z,6.00
2023-05-01T17:30:37.775Z,5.20
2023-05-01T17:33:06.694Z,4.60
2023-05-01T17:35:35.549Z,4.00
2023-05-01T17:38:04.447Z,4.40
2023-05-01T17:40:33.127Z,6.40
2023-05-01T17:43:02.939Z,6.80
2023-05-01T17:45:31.577Z,7.60
2023-05-01T17:48:01.097Z,6.90
2023-05-01T17:50:30.024Z,8.10
2023-05-01T17:52:58.813Z,7.30
2023-05-01T17:55:28.316Z,9.60
2023-05-01T17:57:57.005Z,16.30
2023-05-01T18:00:28.051Z,15.70
2023-05-01T18:02:56.964Z,18.30
2023-05-01T18:05:26.341Z,16.80
2023-05-01T18:07:54.920Z,9.60
2023-05-01T18:10:23.707Z,6.60
2023-05-01T18:12:53.030Z,5.70
2023-05-01T18:15:23.077Z,5.40
2023-05-01T18:17:52.191Z,5.70
2023-05-01T18:20:21.626Z,6.20
2023-05-01T18:22:50.821Z,5.90
2023-05-01T18:25:20.316Z,6.80
2023-05-01T18:27:49.521Z,5.30
2023-05-01T18:30:18.206Z,8.00
2023-05-01T18:32:49.066Z,6.80
2023-05-01T18:35:19.245Z,7.40
2023-05-01T18:40:17.063Z,15.60
2023-05-01T18:42:45.946Z,10.80
2023-05-01T18:45:15.116Z,8.40
2023-05-01T18:47:43.694Z,7.80
2023-05-01T18:50:13.492Z,6.70
2023-05-01T18:52:42.632Z,6.10
2023-05-01T18:55:14.289Z,8.40
2023-05-01T18:57:44.094Z,6.80
2023-05-01T19:00:15.664Z,7.20
2023-05-01T19:02:51.961Z,6.20
2023-05-01T19:05:22.814Z,5.80
2023-05-01T19:07:52.259Z,6.00
2023-05-01T19:10:21.239Z,7.60
2023-05-01T19:12:49.722Z,6.20
2023-05-01T19:15:18.708Z,8.80
2023-05-01T19:17:47.315Z,6.90
2023-05-01T19:20:16.499Z,7.30
2023-05-01T19:22:45.384Z,6.30
2023-05-01T19:25:14.281Z,7.80
2023-05-01T19:27:43.061Z,7.30
2023-05-01T19:30:13.803Z,8.90
2023-05-01T19:32:42.503Z,8.10
2023-05-01T19:35:11.995Z,9.70
2023-05-01T19:37:41.184Z,10.10
2023-05-01T19:40:10.392Z,5.90
2023-05-01T19:42:39.065Z,7.40
2023-05-01T19:45:08.473Z,8.50
2023-05-01T19:47:37.070Z,7.90
2023-05-01T19:50:07.280Z,8.20
2023-05-01T19:52:36.167Z,7.40
2023-05-01T19:55:05.668Z,6.10
2023-05-01T19:57:34.458Z,6.60
2023-05-01T20:00:04.281Z,8.40
2023-05-01T20:02:39.611Z,9.30
2023-05-01T20:05:08.921Z,7.20
2023-05-01T20:07:37.620Z,8.00
2023-05-01T20:10:07.580Z,12.30
2023-05-01T20:12:36.309Z,9.20
2023-05-01T20:15:06.113Z,10.00
2023-05-01T20:17:35.695Z,13.40
2023-05-01T20:20:05.144Z,9.10
2023-05-01T20:22:34.228Z,8.70
2023-05-01T20:25:04.556Z,9.70
2023-05-01T20:27:34.354Z,8.80
2023-05-01T20:30:03.259Z,6.00
2023-05-01T20:32:32.837Z,7.60
2023-05-01T20:35:02.053Z,7.10
2023-05-01T20:37:31.258Z,5.80
2023-05-01T20:40:00.788Z,6.40
2023-05-01T20:42:29.964Z,7.90
2023-05-01T20:44:59.053Z,8.20
2023-05-01T20:47:29.860Z,7.60
2023-05-01T20:49:59.350Z,7.30
2023-05-01T20:52:28.591Z,10.30
2023-05-01T20:54:58.299Z,7.50
2023-05-01T20:57:28.211Z,6.70
2023-05-01T20:59:57.167Z,7.70
2023-05-01T21:02:26.539Z,7.00
2023-05-01T21:04:56.187Z,5.80
2023-05-01T21:07:24.907Z,5.70
2023-05-01T21:09:54.518Z,10.20
2023-05-01T21:12:23.931Z,8.40
2023-05-01T21:14:52.794Z,9.20
2023-05-01T21:17:21.697Z,7.40
2023-05-01T21:19:50.985Z,7.90
2023-05-01T21:22:24.911Z,7.50
2023-05-01T21:24:55.256Z,6.30
2023-05-01T21:27:25.338Z,7.00
2023-05-01T21:32:33.506Z,10.70
2023-05-01T21:35:04.214Z,11.20
2023-05-01T21:37:34.019Z,15.30
2023-05-01T21:40:06.904Z,19.60
2023-05-01T21:42:40.090Z,42.20
2023-05-01T21:45:14.464Z,34.90
2023-05-01T21:47:48.568Z,38.50
2023-05-01T21:50:20.171Z,45.90
2023-05-01T21:52:50.732Z,46.70
2023-05-01T21:55:23.231Z,40.40
2023-05-01T21:57:53.920Z,31.10
2023-05-01T22:00:22.807Z,29.30
2023-05-01T22:02:52.469Z,19.00
2023-05-01T22:05:23.212Z,22.20
2023-05-01T22:07:53.141Z,19.40
2023-05-01T22:10:22.365Z,18.70
2023-05-01T22:12:52.177Z,17.90
2023-05-01T22:15:21.886Z,28.70
2023-05-01T22:17:51.562Z,41.90
2023-05-01T22:22:50.089Z,15.10
2023-05-01T22:25:20.317Z,21.30
2023-05-01T22:27:49.820Z,15.30
2023-05-01T22:30:20.864Z,15.60
2023-05-01T22:32:50.893Z,12.60
2023-05-01T22:35:19.908Z,11.50
2023-05-01T22:37:49.696Z,11.30
2023-05-01T22:40:19.626Z,14.60
2023-05-01T22:42:50.119Z,12.00
2023-05-01T22:45:19.409Z,11.30
2023-05-01T22:47:49.469Z,13.30
2023-05-01T22:50:18.803Z,26.20
2023-05-01T22:52:48.394Z,29.30
2023-05-01T22:55:18.393Z,26.20
2023-05-01T22:57:49.218Z,24.80
2023-05-01T23:00:19.853Z,28.90
2023-05-01T23:02:50.678Z,23.10
2023-05-01T23:05:22.359Z,17.60
2023-05-01T23:07:52.564Z,18.70
2023-05-01T23:10:26.568Z,17.60
2023-05-01T23:12:58.811Z,18.40
2023-05-01T23:15:28.670Z,13.60
2023-05-01T23:17:59.141Z,12.30
2023-05-01T23:23:06.026Z,10.00
2023-05-01T23:25:36.524Z,10.60
2023-05-01T23:28:09.785Z,8.60
2023-05-01T23:30:46.239Z,9.20
2023-05-01T23:33:20.883Z,10.60
2023-05-01T23:35:53.436Z,11.30
2023-05-01T23:38:26.700Z,10.60
2023-05-01T23:40:58.013Z,13.40
2023-05-01T23:43:28.243Z,20.20
2023-05-01T23:45:58.539Z,17.10
2023-05-01T23:48:30.413Z,16.00
2023-05-01T23:51:02.133Z,18.00
2023-05-01T23:53:32.466Z,18.20
2023-05-01T23:58:33.302Z,15.10
